sensor_id;sensor_type;location;lat;lon;timestamp;P1;durP1;ratioP1;P2;durP2;ratioP2
59302;SDS011;45074;52.764;6.896;2023-08-06T00:00:46;11.05;;;6.95;;
59302;SDS011;45074;52.764;6.896;2023-08-06T00:03:12;10.52;;;6.88;;
59302;SDS011;45074;52.764;6.896;2023-08-06T00:05:40;9.93;;;6.63;;
59302;SDS011;45074;52.764;6.896;2023-08-06T00:08:07;10.63;;;7.25;;
59302;SDS011;45074;52.764;6.896;2023-08-06T00:10:33;9.98;;;6.50;;
59302;SDS011;45074;52.764;6.896;2023-08-06T00:12:59;10.95;;;6.32;;
59302;SDS011;45074;52.764;6.896;2023-08-06T00:15:25;10.15;;;6.55;;
59302;SDS011;45074;52.764;6.896;2023-08-06T00:17:51;9.60;;;7.07;;
59302;SDS011;45074;52.764;6.896;2023-08-06T00:20:17;11.30;;;6.72;;
59302;SDS011;45074;52.764;6.896;2023-08-06T00:22:43;9.45;;;6.28;;
59302;SDS011;45074;52.764;6.896;2023-08-06T00:25:09;10.23;;;6.82;;
59302;SDS011;45074;52.764;6.896;2023-08-06T00:27:35;11.23;;;6.55;;
59302;SDS011;45074;52.764;6.896;2023-08-06T00:30:02;8.05;;;5.75;;
59302;SDS011;45074;52.764;6.896;2023-08-06T00:32:28;9.35;;;6.15;;
59302;SDS011;45074;52.764;6.896;2023-08-06T00:34:54;9.68;;;5.90;;
59302;SDS011;45074;52.764;6.896;2023-08-06T00:37:20;11.25;;;6.55;;
59302;SDS011;45074;52.764;6.896;2023-08-06T00:39:46;11.07;;;6.63;;
59302;SDS011;45074;52.764;6.896;2023-08-06T00:42:12;9.07;;;6.57;;
59302;SDS011;45074;52.764;6.896;2023-08-06T00:44:38;11.00;;;6.90;;
59302;SDS011;45074;52.764;6.896;2023-08-06T00:47:05;10.57;;;6.30;;
59302;SDS011;45074;52.764;6.896;2023-08-06T00:49:32;10.80;;;7.07;;
59302;SDS011;45074;52.764;6.896;2023-08-06T00:51:58;10.73;;;6.75;;
59302;SDS011;45074;52.764;6.896;2023-08-06T00:54:25;10.65;;;7.25;;
59302;SDS011;45074;52.764;6.896;2023-08-06T00:56:52;11.00;;;7.20;;
59302;SDS011;45074;52.764;6.896;2023-08-06T00:59:18;12.68;;;7.82;;
59302;SDS011;45074;52.764;6.896;2023-08-06T01:01:45;11.05;;;7.25;;
59302;SDS011;45074;52.764;6.896;2023-08-06T01:04:11;11.30;;;7.50;;
59302;SDS011;45074;52.764;6.896;2023-08-06T01:06:58;11.02;;;7.20;;
59302;SDS011;45074;52.764;6.896;2023-08-06T01:09:50;11.02;;;7.82;;
59302;SDS011;45074;52.764;6.896;2023-08-06T01:15:15;11.15;;;7.45;;
59302;SDS011;45074;52.764;6.896;2023-08-06T01:17:47;10.50;;;7.35;;
59302;SDS011;45074;52.764;6.896;2023-08-06T01:20:13;11.63;;;7.30;;
59302;SDS011;45074;52.764;6.896;2023-08-06T01:22:39;10.32;;;7.32;;
59302;SDS011;45074;52.764;6.896;2023-08-06T01:25:05;10.57;;;7.47;;
59302;SDS011;45074;52.764;6.896;2023-08-06T01:27:48;13.35;;;7.85;;
59302;SDS011;45074;52.764;6.896;2023-08-06T01:32:49;10.88;;;7.47;;
59302;SDS011;45074;52.764;6.896;2023-08-06T01:35:18;10.95;;;6.70;;
59302;SDS011;45074;52.764;6.896;2023-08-06T01:37:45;10.98;;;7.60;;
59302;SDS011;45074;52.764;6.896;2023-08-06T01:40:12;9.70;;;7.18;;
59302;SDS011;45074;52.764;6.896;2023-08-06T01:42:38;11.65;;;7.65;;
59302;SDS011;45074;52.764;6.896;2023-08-06T01:45:05;11.50;;;7.32;;
59302;SDS011;45074;52.764;6.896;2023-08-06T01:47:32;12.80;;;7.22;;
59302;SDS011;45074;52.764;6.896;2023-08-06T01:49:58;13.18;;;7.80;;
59302;SDS011;45074;52.764;6.896;2023-08-06T01:52:24;10.88;;;7.53;;
59302;SDS011;45074;52.764;6.896;2023-08-06T01:54:50;11.93;;;8.02;;
59302;SDS011;45074;52.764;6.896;2023-08-06T01:57:16;12.02;;;8.65;;
59302;SDS011;45074;52.764;6.896;2023-08-06T01:59:42;11.90;;;8.48;;
59302;SDS011;45074;52.764;6.896;2023-08-06T02:02:08;13.15;;;9.10;;
59302;SDS011;45074;52.764;6.896;2023-08-06T02:04:34;12.75;;;8.70;;
59302;SDS011;45074;52.764;6.896;2023-08-06T02:07:00;11.27;;;8.25;;
59302;SDS011;45074;52.764;6.896;2023-08-06T02:09:26;14.02;;;8.82;;
59302;SDS011;45074;52.764;6.896;2023-08-06T02:11:52;11.77;;;8.70;;
59302;SDS011;45074;52.764;6.896;2023-08-06T02:14:18;12.60;;;8.52;;
59302;SDS011;45074;52.764;6.896;2023-08-06T02:16:44;11.50;;;8.18;;
59302;SDS011;45074;52.764;6.896;2023-08-06T02:19:10;13.80;;;8.65;;
59302;SDS011;45074;52.764;6.896;2023-08-06T02:21:36;11.25;;;8.27;;
59302;SDS011;45074;52.764;6.896;2023-08-06T02:24:02;12.10;;;8.68;;
59302;SDS011;45074;52.764;6.896;2023-08-06T02:26:28;14.20;;;8.73;;
59302;SDS011;45074;52.764;6.896;2023-08-06T02:28:54;14.52;;;8.85;;
59302;SDS011;45074;52.764;6.896;2023-08-06T02:31:20;13.32;;;8.75;;
59302;SDS011;45074;52.764;6.896;2023-08-06T02:33:46;12.75;;;8.40;;
59302;SDS011;45074;52.764;6.896;2023-08-06T02:36:12;13.13;;;9.20;;
59302;SDS011;45074;52.764;6.896;2023-08-06T02:38:38;13.27;;;8.98;;
59302;SDS011;45074;52.764;6.896;2023-08-06T02:41:04;12.25;;;8.65;;
59302;SDS011;45074;52.764;6.896;2023-08-06T02:43:30;11.60;;;8.43;;
59302;SDS011;45074;52.764;6.896;2023-08-06T02:45:57;11.80;;;8.35;;
59302;SDS011;45074;52.764;6.896;2023-08-06T02:48:26;12.13;;;8.50;;
59302;SDS011;45074;52.764;6.896;2023-08-06T02:50:52;12.57;;;8.35;;
59302;SDS011;45074;52.764;6.896;2023-08-06T02:53:18;12.73;;;8.15;;
59302;SDS011;45074;52.764;6.896;2023-08-06T02:55:47;11.52;;;8.68;;
59302;SDS011;45074;52.764;6.896;2023-08-06T02:58:13;11.75;;;8.18;;
59302;SDS011;45074;52.764;6.896;2023-08-06T03:00:42;11.98;;;8.68;;
59302;SDS011;45074;52.764;6.896;2023-08-06T03:03:11;12.65;;;8.48;;
59302;SDS011;45074;52.764;6.896;2023-08-06T03:05:37;12.02;;;8.45;;
59302;SDS011;45074;52.764;6.896;2023-08-06T03:08:03;11.18;;;8.40;;
59302;SDS011;45074;52.764;6.896;2023-08-06T03:10:29;11.45;;;8.05;;
59302;SDS011;45074;52.764;6.896;2023-08-06T03:12:54;10.90;;;7.65;;
59302;SDS011;45074;52.764;6.896;2023-08-06T03:15:20;10.57;;;7.88;;
59302;SDS011;45074;52.764;6.896;2023-08-06T03:17:46;11.23;;;8.40;;
59302;SDS011;45074;52.764;6.896;2023-08-06T03:20:12;11.50;;;8.45;;
59302;SDS011;45074;52.764;6.896;2023-08-06T03:22:38;12.95;;;8.50;;
59302;SDS011;45074;52.764;6.896;2023-08-06T03:25:05;11.50;;;8.32;;
59302;SDS011;45074;52.764;6.896;2023-08-06T03:27:30;12.13;;;8.60;;
59302;SDS011;45074;52.764;6.896;2023-08-06T03:29:56;13.15;;;8.45;;
59302;SDS011;45074;52.764;6.896;2023-08-06T03:32:22;11.40;;;8.32;;
59302;SDS011;45074;52.764;6.896;2023-08-06T03:34:48;12.20;;;8.85;;
59302;SDS011;45074;52.764;6.896;2023-08-06T03:37:14;12.20;;;8.35;;
59302;SDS011;45074;52.764;6.896;2023-08-06T03:39:40;12.98;;;9.07;;
59302;SDS011;45074;52.764;6.896;2023-08-06T03:42:06;13.38;;;8.82;;
59302;SDS011;45074;52.764;6.896;2023-08-06T03:44:32;11.45;;;8.43;;
59302;SDS011;45074;52.764;6.896;2023-08-06T03:46:58;12.00;;;8.88;;
59302;SDS011;45074;52.764;6.896;2023-08-06T03:49:24;12.85;;;8.82;;
59302;SDS011;45074;52.764;6.896;2023-08-06T03:51:50;13.20;;;9.00;;
59302;SDS011;45074;52.764;6.896;2023-08-06T03:54:16;11.93;;;9.32;;
59302;SDS011;45074;52.764;6.896;2023-08-06T03:56:42;11.88;;;8.63;;
59302;SDS011;45074;52.764;6.896;2023-08-06T03:59:08;13.40;;;9.38;;
59302;SDS011;45074;52.764;6.896;2023-08-06T04:01:34;13.82;;;9.30;;
59302;SDS011;45074;52.764;6.896;2023-08-06T04:04:00;18.65;;;9.27;;
59302;SDS011;45074;52.764;6.896;2023-08-06T04:06:26;13.50;;;9.48;;
59302;SDS011;45074;52.764;6.896;2023-08-06T04:08:52;12.30;;;8.98;;
59302;SDS011;45074;52.764;6.896;2023-08-06T04:11:18;14.18;;;9.05;;
59302;SDS011;45074;52.764;6.896;2023-08-06T04:13:44;14.02;;;9.82;;
59302;SDS011;45074;52.764;6.896;2023-08-06T04:16:10;12.52;;;9.52;;
59302;SDS011;45074;52.764;6.896;2023-08-06T04:18:37;14.93;;;9.88;;
59302;SDS011;45074;52.764;6.896;2023-08-06T04:21:03;14.40;;;9.35;;
59302;SDS011;45074;52.764;6.896;2023-08-06T04:23:29;13.57;;;9.65;;
59302;SDS011;45074;52.764;6.896;2023-08-06T04:25:58;13.52;;;9.45;;
59302;SDS011;45074;52.764;6.896;2023-08-06T04:28:23;13.18;;;9.95;;
59302;SDS011;45074;52.764;6.896;2023-08-06T04:30:49;13.45;;;9.85;;
59302;SDS011;45074;52.764;6.896;2023-08-06T04:33:15;15.07;;;10.13;;
59302;SDS011;45074;52.764;6.896;2023-08-06T04:35:41;13.82;;;10.02;;
59302;SDS011;45074;52.764;6.896;2023-08-06T04:38:07;12.63;;;9.77;;
59302;SDS011;45074;52.764;6.896;2023-08-06T04:40:34;15.55;;;9.23;;
59302;SDS011;45074;52.764;6.896;2023-08-06T04:43:00;13.05;;;9.98;;
59302;SDS011;45074;52.764;6.896;2023-08-06T04:45:26;15.15;;;10.50;;
59302;SDS011;45074;52.764;6.896;2023-08-06T04:47:52;14.88;;;10.32;;
59302;SDS011;45074;52.764;6.896;2023-08-06T04:50:19;13.85;;;9.95;;
59302;SDS011;45074;52.764;6.896;2023-08-06T04:52:45;13.90;;;9.75;;
59302;SDS011;45074;52.764;6.896;2023-08-06T04:55:11;16.73;;;10.40;;
59302;SDS011;45074;52.764;6.896;2023-08-06T04:57:37;14.90;;;9.93;;
59302;SDS011;45074;52.764;6.896;2023-08-06T05:00:03;15.15;;;10.05;;
59302;SDS011;45074;52.764;6.896;2023-08-06T05:02:30;13.98;;;9.98;;
59302;SDS011;45074;52.764;6.896;2023-08-06T05:04:57;14.95;;;10.90;;
59302;SDS011;45074;52.764;6.896;2023-08-06T05:07:23;15.45;;;10.05;;
59302;SDS011;45074;52.764;6.896;2023-08-06T05:09:49;13.68;;;10.52;;
59302;SDS011;45074;52.764;6.896;2023-08-06T05:12:15;13.80;;;10.32;;
59302;SDS011;45074;52.764;6.896;2023-08-06T05:14:41;15.55;;;10.43;;
59302;SDS011;45074;52.764;6.896;2023-08-06T05:17:07;14.40;;;10.90;;
59302;SDS011;45074;52.764;6.896;2023-08-06T05:19:33;16.98;;;12.55;;
59302;SDS011;45074;52.764;6.896;2023-08-06T05:21:59;15.48;;;11.23;;
59302;SDS011;45074;52.764;6.896;2023-08-06T05:24:27;14.88;;;11.32;;
59302;SDS011;45074;52.764;6.896;2023-08-06T05:26:53;14.95;;;11.25;;
59302;SDS011;45074;52.764;6.896;2023-08-06T05:29:19;15.45;;;11.13;;
59302;SDS011;45074;52.764;6.896;2023-08-06T05:31:45;14.43;;;11.45;;
59302;SDS011;45074;52.764;6.896;2023-08-06T05:34:11;14.55;;;11.05;;
59302;SDS011;45074;52.764;6.896;2023-08-06T05:36:37;15.40;;;11.32;;
59302;SDS011;45074;52.764;6.896;2023-08-06T05:39:03;16.45;;;11.75;;
59302;SDS011;45074;52.764;6.896;2023-08-06T05:41:29;17.65;;;12.68;;
59302;SDS011;45074;52.764;6.896;2023-08-06T05:43:55;16.13;;;12.25;;
59302;SDS011;45074;52.764;6.896;2023-08-06T05:46:21;18.38;;;12.35;;
59302;SDS011;45074;52.764;6.896;2023-08-06T05:48:47;19.60;;;12.80;;
59302;SDS011;45074;52.764;6.896;2023-08-06T05:51:13;17.83;;;11.90;;
59302;SDS011;45074;52.764;6.896;2023-08-06T05:53:41;16.55;;;11.93;;
59302;SDS011;45074;52.764;6.896;2023-08-06T05:56:07;15.80;;;12.60;;
59302;SDS011;45074;52.764;6.896;2023-08-06T05:58:33;16.80;;;12.70;;
59302;SDS011;45074;52.764;6.896;2023-08-06T06:00:59;16.40;;;12.48;;
59302;SDS011;45074;52.764;6.896;2023-08-06T06:03:25;16.27;;;12.43;;
59302;SDS011;45074;52.764;6.896;2023-08-06T06:05:51;14.75;;;11.95;;
59302;SDS011;45074;52.764;6.896;2023-08-06T06:08:17;16.33;;;12.02;;
59302;SDS011;45074;52.764;6.896;2023-08-06T06:10:43;16.35;;;12.68;;
59302;SDS011;45074;52.764;6.896;2023-08-06T06:13:09;15.02;;;12.35;;
59302;SDS011;45074;52.764;6.896;2023-08-06T06:15:35;15.45;;;12.00;;
59302;SDS011;45074;52.764;6.896;2023-08-06T06:18:01;15.40;;;12.10;;
59302;SDS011;45074;52.764;6.896;2023-08-06T06:20:27;16.17;;;12.35;;
59302;SDS011;45074;52.764;6.896;2023-08-06T06:22:53;15.70;;;11.93;;
59302;SDS011;45074;52.764;6.896;2023-08-06T06:25:19;15.70;;;12.57;;
59302;SDS011;45074;52.764;6.896;2023-08-06T06:27:44;15.77;;;12.32;;
59302;SDS011;45074;52.764;6.896;2023-08-06T06:30:10;15.90;;;11.68;;
59302;SDS011;45074;52.764;6.896;2023-08-06T06:32:37;15.73;;;11.70;;
59302;SDS011;45074;52.764;6.896;2023-08-06T06:35:03;16.52;;;12.10;;
59302;SDS011;45074;52.764;6.896;2023-08-06T06:37:28;15.10;;;11.27;;
59302;SDS011;45074;52.764;6.896;2023-08-06T06:39:54;14.07;;;11.57;;
59302;SDS011;45074;52.764;6.896;2023-08-06T06:42:20;15.23;;;11.65;;
59302;SDS011;45074;52.764;6.896;2023-08-06T06:44:47;12.93;;;10.85;;
59302;SDS011;45074;52.764;6.896;2023-08-06T06:47:13;14.43;;;11.35;;
59302;SDS011;45074;52.764;6.896;2023-08-06T06:49:39;13.23;;;11.18;;
59302;SDS011;45074;52.764;6.896;2023-08-06T06:52:05;14.60;;;11.48;;
59302;SDS011;45074;52.764;6.896;2023-08-06T06:54:31;14.20;;;11.73;;
59302;SDS011;45074;52.764;6.896;2023-08-06T06:56:57;13.13;;;11.05;;
59302;SDS011;45074;52.764;6.896;2023-08-06T06:59:23;14.27;;;11.30;;
59302;SDS011;45074;52.764;6.896;2023-08-06T07:01:49;13.48;;;10.57;;
59302;SDS011;45074;52.764;6.896;2023-08-06T07:04:15;13.50;;;10.50;;
59302;SDS011;45074;52.764;6.896;2023-08-06T07:06:41;14.25;;;10.82;;
59302;SDS011;45074;52.764;6.896;2023-08-06T07:09:07;12.85;;;9.98;;
59302;SDS011;45074;52.764;6.896;2023-08-06T07:11:33;13.00;;;10.27;;
59302;SDS011;45074;52.764;6.896;2023-08-06T07:13:59;13.82;;;11.13;;
59302;SDS011;45074;52.764;6.896;2023-08-06T07:16:26;14.38;;;11.20;;
59302;SDS011;45074;52.764;6.896;2023-08-06T07:18:53;14.95;;;10.73;;
59302;SDS011;45074;52.764;6.896;2023-08-06T07:21:19;13.40;;;10.68;;
59302;SDS011;45074;52.764;6.896;2023-08-06T07:23:45;14.55;;;10.57;;
59302;SDS011;45074;52.764;6.896;2023-08-06T07:26:11;16.05;;;10.40;;
59302;SDS011;45074;52.764;6.896;2023-08-06T07:28:37;14.20;;;10.20;;
59302;SDS011;45074;52.764;6.896;2023-08-06T07:31:02;13.65;;;9.82;;
59302;SDS011;45074;52.764;6.896;2023-08-06T07:33:29;14.05;;;10.05;;
59302;SDS011;45074;52.764;6.896;2023-08-06T07:35:55;13.50;;;9.63;;
59302;SDS011;45074;52.764;6.896;2023-08-06T07:38:21;13.00;;;9.20;;
59302;SDS011;45074;52.764;6.896;2023-08-06T07:40:47;13.00;;;10.38;;
59302;SDS011;45074;52.764;6.896;2023-08-06T07:43:13;12.65;;;10.00;;
59302;SDS011;45074;52.764;6.896;2023-08-06T07:45:38;13.40;;;10.32;;
59302;SDS011;45074;52.764;6.896;2023-08-06T07:48:04;13.00;;;10.68;;
59302;SDS011;45074;52.764;6.896;2023-08-06T07:50:30;14.07;;;10.70;;
59302;SDS011;45074;52.764;6.896;2023-08-06T07:52:56;12.38;;;9.63;;
59302;SDS011;45074;52.764;6.896;2023-08-06T07:55:21;12.60;;;9.70;;
59302;SDS011;45074;52.764;6.896;2023-08-06T07:57:47;12.98;;;9.13;;
59302;SDS011;45074;52.764;6.896;2023-08-06T08:00:13;11.02;;;8.77;;
59302;SDS011;45074;52.764;6.896;2023-08-06T08:02:38;11.90;;;9.18;;
59302;SDS011;45074;52.764;6.896;2023-08-06T08:05:04;11.57;;;8.98;;
59302;SDS011;45074;52.764;6.896;2023-08-06T08:07:32;10.73;;;9.13;;
59302;SDS011;45074;52.764;6.896;2023-08-06T08:09:57;10.63;;;8.95;;
59302;SDS011;45074;52.764;6.896;2023-08-06T08:12:23;12.43;;;10.38;;
59302;SDS011;45074;52.764;6.896;2023-08-06T08:14:49;11.13;;;9.15;;
59302;SDS011;45074;52.764;6.896;2023-08-06T08:17:16;11.43;;;8.85;;
59302;SDS011;45074;52.764;6.896;2023-08-06T08:19:41;11.02;;;8.57;;
59302;SDS011;45074;52.764;6.896;2023-08-06T08:22:07;12.30;;;8.77;;
59302;SDS011;45074;52.764;6.896;2023-08-06T08:24:32;12.73;;;8.95;;
59302;SDS011;45074;52.764;6.896;2023-08-06T08:26:59;10.98;;;8.50;;
59302;SDS011;45074;52.764;6.896;2023-08-06T08:29:25;11.52;;;8.95;;
59302;SDS011;45074;52.764;6.896;2023-08-06T08:31:50;12.50;;;9.85;;
59302;SDS011;45074;52.764;6.896;2023-08-06T08:34:16;12.18;;;8.93;;
59302;SDS011;45074;52.764;6.896;2023-08-06T08:36:42;11.80;;;8.48;;
59302;SDS011;45074;52.764;6.896;2023-08-06T08:39:08;10.80;;;8.75;;
59302;SDS011;45074;52.764;6.896;2023-08-06T08:41:37;10.00;;;8.65;;
59302;SDS011;45074;52.764;6.896;2023-08-06T08:44:02;10.80;;;8.73;;
59302;SDS011;45074;52.764;6.896;2023-08-06T08:46:32;10.43;;;8.70;;
59302;SDS011;45074;52.764;6.896;2023-08-06T08:48:59;9.80;;;8.23;;
59302;SDS011;45074;52.764;6.896;2023-08-06T08:51:25;11.02;;;8.93;;
59302;SDS011;45074;52.764;6.896;2023-08-06T08:53:53;11.60;;;8.80;;
59302;SDS011;45074;52.764;6.896;2023-08-06T08:56:21;10.00;;;8.05;;
59302;SDS011;45074;52.764;6.896;2023-08-06T08:58:47;9.02;;;7.35;;
59302;SDS011;45074;52.764;6.896;2023-08-06T09:01:13;11.30;;;8.30;;
59302;SDS011;45074;52.764;6.896;2023-08-06T09:03:40;9.40;;;7.30;;
59302;SDS011;45074;52.764;6.896;2023-08-06T09:06:07;9.27;;;7.55;;
59302;SDS011;45074;52.764;6.896;2023-08-06T09:08:36;9.35;;;8.13;;
59302;SDS011;45074;52.764;6.896;2023-08-06T09:11:06;9.52;;;7.65;;
59302;SDS011;45074;52.764;6.896;2023-08-06T09:13:35;10.60;;;7.72;;
59302;SDS011;45074;52.764;6.896;2023-08-06T09:16:02;9.82;;;7.90;;
59302;SDS011;45074;52.764;6.896;2023-08-06T09:18:31;8.95;;;7.82;;
59302;SDS011;45074;52.764;6.896;2023-08-06T09:20:57;9.35;;;8.23;;
59302;SDS011;45074;52.764;6.896;2023-08-06T09:23:29;9.70;;;7.28;;
59302;SDS011;45074;52.764;6.896;2023-08-06T09:25:56;10.75;;;7.60;;
59302;SDS011;45074;52.764;6.896;2023-08-06T09:28:22;9.40;;;7.78;;
59302;SDS011;45074;52.764;6.896;2023-08-06T09:30:49;9.32;;;7.60;;
59302;SDS011;45074;52.764;6.896;2023-08-06T09:33:19;8.93;;;7.53;;
59302;SDS011;45074;52.764;6.896;2023-08-06T09:35:45;9.00;;;7.32;;
59302;SDS011;45074;52.764;6.896;2023-08-06T09:38:12;9.35;;;7.38;;
59302;SDS011;45074;52.764;6.896;2023-08-06T09:40:38;9.25;;;7.60;;
59302;SDS011;45074;52.764;6.896;2023-08-06T09:43:05;8.55;;;6.60;;
59302;SDS011;45074;52.764;6.896;2023-08-06T09:45:32;8.15;;;6.78;;
59302;SDS011;45074;52.764;6.896;2023-08-06T09:47:59;8.50;;;6.85;;
59302;SDS011;45074;52.764;6.896;2023-08-06T09:50:31;9.18;;;6.60;;
59302;SDS011;45074;52.764;6.896;2023-08-06T09:53:01;8.73;;;6.38;;
59302;SDS011;45074;52.764;6.896;2023-08-06T09:55:27;10.18;;;6.50;;
59302;SDS011;45074;52.764;6.896;2023-08-06T09:57:53;9.38;;;6.22;;
59302;SDS011;45074;52.764;6.896;2023-08-06T10:00:19;9.70;;;6.78;;
59302;SDS011;45074;52.764;6.896;2023-08-06T10:02:45;7.88;;;5.90;;
59302;SDS011;45074;52.764;6.896;2023-08-06T10:05:13;7.75;;;5.80;;
59302;SDS011;45074;52.764;6.896;2023-08-06T10:07:39;7.65;;;5.93;;
59302;SDS011;45074;52.764;6.896;2023-08-06T10:10:06;8.65;;;5.95;;
59302;SDS011;45074;52.764;6.896;2023-08-06T10:12:51;8.82;;;5.53;;
59302;SDS011;45074;52.764;6.896;2023-08-06T10:15:24;7.47;;;5.60;;
59302;SDS011;45074;52.764;6.896;2023-08-06T10:17:51;7.20;;;5.65;;
59302;SDS011;45074;52.764;6.896;2023-08-06T10:20:21;7.93;;;5.80;;
59302;SDS011;45074;52.764;6.896;2023-08-06T10:23:09;7.95;;;6.25;;
59302;SDS011;45074;52.764;6.896;2023-08-06T10:25:34;7.05;;;5.05;;
59302;SDS011;45074;52.764;6.896;2023-08-06T10:28:00;8.13;;;5.50;;
59302;SDS011;45074;52.764;6.896;2023-08-06T10:30:30;7.40;;;5.32;;
59302;SDS011;45074;52.764;6.896;2023-08-06T10:33:03;7.22;;;5.43;;
59302;SDS011;45074;52.764;6.896;2023-08-06T10:35:36;8.10;;;4.70;;
59302;SDS011;45074;52.764;6.896;2023-08-06T10:38:04;7.22;;;4.80;;
59302;SDS011;45074;52.764;6.896;2023-08-06T10:40:34;7.88;;;4.50;;
59302;SDS011;45074;52.764;6.896;2023-08-06T10:43:01;7.53;;;4.90;;
59302;SDS011;45074;52.764;6.896;2023-08-06T10:45:28;7.32;;;4.38;;
59302;SDS011;45074;52.764;6.896;2023-08-06T10:47:55;8.68;;;5.60;;
59302;SDS011;45074;52.764;6.896;2023-08-06T10:50:22;6.72;;;4.40;;
59302;SDS011;45074;52.764;6.896;2023-08-06T10:52:48;7.03;;;4.80;;
59302;SDS011;45074;52.764;6.896;2023-08-06T10:55:21;7.25;;;4.50;;
59302;SDS011;45074;52.764;6.896;2023-08-06T10:57:56;7.78;;;4.57;;
59302;SDS011;45074;52.764;6.896;2023-08-06T11:00:23;7.63;;;4.60;;
59302;SDS011;45074;52.764;6.896;2023-08-06T11:02:49;6.72;;;4.30;;
59302;SDS011;45074;52.764;6.896;2023-08-06T11:05:15;6.75;;;4.47;;
59302;SDS011;45074;52.764;6.896;2023-08-06T11:07:42;8.05;;;4.60;;
59302;SDS011;45074;52.764;6.896;2023-08-06T11:10:09;5.60;;;4.00;;
59302;SDS011;45074;52.764;6.896;2023-08-06T11:12:36;6.95;;;4.25;;
59302;SDS011;45074;52.764;6.896;2023-08-06T11:15:02;6.10;;;3.88;;
59302;SDS011;45074;52.764;6.896;2023-08-06T11:17:29;7.47;;;4.10;;
59302;SDS011;45074;52.764;6.896;2023-08-06T11:19:56;6.72;;;3.28;;
59302;SDS011;45074;52.764;6.896;2023-08-06T11:22:24;5.70;;;3.30;;
59302;SDS011;45074;52.764;6.896;2023-08-06T11:24:50;5.35;;;3.30;;
59302;SDS011;45074;52.764;6.896;2023-08-06T11:27:16;7.35;;;3.65;;
59302;SDS011;45074;52.764;6.896;2023-08-06T11:29:43;5.93;;;3.75;;
59302;SDS011;45074;52.764;6.896;2023-08-06T11:32:09;5.50;;;3.72;;
59302;SDS011;45074;52.764;6.896;2023-08-06T11:34:36;7.03;;;3.67;;
59302;SDS011;45074;52.764;6.896;2023-08-06T11:37:05;5.90;;;3.97;;
59302;SDS011;45074;52.764;6.896;2023-08-06T11:39:34;7.20;;;4.22;;
59302;SDS011;45074;52.764;6.896;2023-08-06T11:42:02;5.90;;;4.03;;
59302;SDS011;45074;52.764;6.896;2023-08-06T11:44:36;6.43;;;3.67;;
59302;SDS011;45074;52.764;6.896;2023-08-06T11:47:02;6.07;;;3.90;;
59302;SDS011;45074;52.764;6.896;2023-08-06T11:55:09;5.03;;;3.50;;
59302;SDS011;45074;52.764;6.896;2023-08-06T11:57:39;5.57;;;3.15;;
59302;SDS011;45074;52.764;6.896;2023-08-06T12:00:06;5.93;;;3.50;;
59302;SDS011;45074;52.764;6.896;2023-08-06T12:02:34;5.70;;;3.42;;
59302;SDS011;45074;52.764;6.896;2023-08-06T12:05:09;6.13;;;3.00;;
59302;SDS011;45074;52.764;6.896;2023-08-06T12:07:36;4.10;;;3.05;;
59302;SDS011;45074;52.764;6.896;2023-08-06T12:10:03;5.63;;;3.38;;
59302;SDS011;45074;52.764;6.896;2023-08-06T12:12:30;6.43;;;3.53;;
59302;SDS011;45074;52.764;6.896;2023-08-06T12:14:56;6.80;;;3.97;;
59302;SDS011;45074;52.764;6.896;2023-08-06T12:17:22;6.63;;;3.80;;
59302;SDS011;45074;52.764;6.896;2023-08-06T12:19:49;6.63;;;4.03;;
59302;SDS011;45074;52.764;6.896;2023-08-06T12:22:15;6.75;;;3.03;;
59302;SDS011;45074;52.764;6.896;2023-08-06T12:24:42;6.50;;;3.40;;
59302;SDS011;45074;52.764;6.896;2023-08-06T12:27:08;6.68;;;3.40;;
59302;SDS011;45074;52.764;6.896;2023-08-06T12:29:35;7.13;;;3.67;;
59302;SDS011;45074;52.764;6.896;2023-08-06T12:32:02;6.75;;;3.10;;
59302;SDS011;45074;52.764;6.896;2023-08-06T12:34:28;5.72;;;3.25;;
59302;SDS011;45074;52.764;6.896;2023-08-06T12:36:54;5.13;;;2.80;;
59302;SDS011;45074;52.764;6.896;2023-08-06T12:39:20;4.45;;;2.92;;
59302;SDS011;45074;52.764;6.896;2023-08-06T12:41:46;5.53;;;2.85;;
59302;SDS011;45074;52.764;6.896;2023-08-06T12:44:12;3.92;;;2.60;;
59302;SDS011;45074;52.764;6.896;2023-08-06T12:46:37;4.35;;;2.50;;
59302;SDS011;45074;52.764;6.896;2023-08-06T12:49:03;5.63;;;2.80;;
59302;SDS011;45074;52.764;6.896;2023-08-06T12:51:30;2.88;;;2.33;;
59302;SDS011;45074;52.764;6.896;2023-08-06T12:53:58;4.57;;;2.60;;
59302;SDS011;45074;52.764;6.896;2023-08-06T12:56:24;4.35;;;2.22;;
59302;SDS011;45074;52.764;6.896;2023-08-06T12:58:49;4.10;;;2.40;;
59302;SDS011;45074;52.764;6.896;2023-08-06T13:01:15;4.28;;;2.50;;
59302;SDS011;45074;52.764;6.896;2023-08-06T13:03:40;3.90;;;2.10;;
59302;SDS011;45074;52.764;6.896;2023-08-06T13:06:06;3.38;;;2.00;;
59302;SDS011;45074;52.764;6.896;2023-08-06T13:08:34;3.90;;;2.08;;
59302;SDS011;45074;52.764;6.896;2023-08-06T13:11:00;3.90;;;2.10;;
59302;SDS011;45074;52.764;6.896;2023-08-06T13:13:26;3.13;;;2.05;;
59302;SDS011;45074;52.764;6.896;2023-08-06T13:15:52;3.58;;;2.30;;
59302;SDS011;45074;52.764;6.896;2023-08-06T13:18:18;4.85;;;2.50;;
59302;SDS011;45074;52.764;6.896;2023-08-06T13:20:44;4.18;;;2.42;;
59302;SDS011;45074;52.764;6.896;2023-08-06T13:23:11;4.20;;;2.70;;
59302;SDS011;45074;52.764;6.896;2023-08-06T13:25:40;3.85;;;2.60;;
59302;SDS011;45074;52.764;6.896;2023-08-06T13:28:06;4.13;;;2.50;;
59302;SDS011;45074;52.764;6.896;2023-08-06T13:30:32;4.13;;;2.60;;
59302;SDS011;45074;52.764;6.896;2023-08-06T13:33:00;3.67;;;2.80;;
59302;SDS011;45074;52.764;6.896;2023-08-06T13:35:26;5.13;;;2.50;;
59302;SDS011;45074;52.764;6.896;2023-08-06T13:37:52;4.38;;;2.50;;
59302;SDS011;45074;52.764;6.896;2023-08-06T13:40:19;5.47;;;2.83;;
59302;SDS011;45074;52.764;6.896;2023-08-06T13:42:45;4.65;;;2.70;;
59302;SDS011;45074;52.764;6.896;2023-08-06T13:45:11;4.60;;;2.70;;
59302;SDS011;45074;52.764;6.896;2023-08-06T13:47:37;4.13;;;2.47;;
59302;SDS011;45074;52.764;6.896;2023-08-06T13:50:03;3.38;;;2.30;;
59302;SDS011;45074;52.764;6.896;2023-08-06T13:52:29;4.22;;;2.60;;
59302;SDS011;45074;52.764;6.896;2023-08-06T13:54:55;5.20;;;2.38;;
59302;SDS011;45074;52.764;6.896;2023-08-06T13:57:21;2.95;;;2.13;;
59302;SDS011;45074;52.764;6.896;2023-08-06T13:59:47;4.30;;;2.50;;
59302;SDS011;45074;52.764;6.896;2023-08-06T14:02:13;5.13;;;2.45;;
59302;SDS011;45074;52.764;6.896;2023-08-06T14:04:39;4.57;;;2.55;;
59302;SDS011;45074;52.764;6.896;2023-08-06T14:07:05;4.18;;;2.40;;
59302;SDS011;45074;52.764;6.896;2023-08-06T14:09:31;4.30;;;2.40;;
59302;SDS011;45074;52.764;6.896;2023-08-06T14:11:59;5.20;;;2.50;;
59302;SDS011;45074;52.764;6.896;2023-08-06T14:14:25;4.43;;;2.58;;
59302;SDS011;45074;52.764;6.896;2023-08-06T14:16:55;5.00;;;2.50;;
59302;SDS011;45074;52.764;6.896;2023-08-06T14:19:21;5.70;;;2.50;;
59302;SDS011;45074;52.764;6.896;2023-08-06T14:21:47;5.55;;;2.50;;
59302;SDS011;45074;52.764;6.896;2023-08-06T14:24:13;4.75;;;2.50;;
59302;SDS011;45074;52.764;6.896;2023-08-06T14:26:40;5.03;;;2.80;;
59302;SDS011;45074;52.764;6.896;2023-08-06T14:29:06;3.85;;;2.40;;
59302;SDS011;45074;52.764;6.896;2023-08-06T14:31:32;4.20;;;2.70;;
59302;SDS011;45074;52.764;6.896;2023-08-06T14:33:58;4.35;;;2.58;;
59302;SDS011;45074;52.764;6.896;2023-08-06T14:36:25;5.35;;;2.85;;
59302;SDS011;45074;52.764;6.896;2023-08-06T14:38:51;8.27;;;4.10;;
59302;SDS011;45074;52.764;6.896;2023-08-06T14:41:17;9.73;;;4.60;;
59302;SDS011;45074;52.764;6.896;2023-08-06T14:43:43;11.93;;;5.60;;
59302;SDS011;45074;52.764;6.896;2023-08-06T14:46:09;9.43;;;4.13;;